Main page
Satellite images 15-day forecastsClimateMarine weather Cyclones Lightning AirportsFAQ Newsletter About
Weather : Europe Africa North America South America Asia Australia-Oceania Others
Languages Contact

Bauru, São Paulo, Brazil

latitude: 22-19S, longitude: 049-04W, elevation: 590 m


METAR: SBBU 021800Z 01007KT CAVOK 33/20 Q1011
short-TAF: out of date (56653 hours)
long-TAF: out of date (21996 hours)

Time: 15:49 (18:49 UTC)

Current weather observation

The report was made 49 minutes ago, at 18:00 UTC  
Wind 07 kt from the North
Temperature 33°C
Humidity 46%
Pressure 1011 hPa
Visibility 10 km or more
no clouds below 1500 m and no cumulonimbus

Change units
The information on this site is subject to a disclaimer
Weather : Europe Africa North America South America Asia Australia-Oceania Others
Satellite images 15-day forecastsClimateMarine weather Cyclones Lightning AirportsFAQ Languages Contact Newsletter About